createdAt,value
2018-04-02T00:00:12.142Z,0.40
2018-04-02T00:02:38.964Z,0.40
2018-04-02T00:05:05.508Z,0.40
2018-04-02T00:07:31.959Z,0.30
2018-04-02T00:09:58.541Z,0.40
2018-04-02T00:12:25.733Z,0.40
2018-04-02T00:14:52.414Z,0.40
2018-04-02T00:17:19.106Z,0.40
2018-04-02T00:19:46.258Z,0.40
2018-04-02T00:22:12.633Z,0.40
2018-04-02T00:24:39.174Z,0.40
2018-04-02T00:27:05.630Z,0.30
2018-04-02T00:29:32.825Z,0.40
2018-04-02T00:31:59.386Z,0.40
2018-04-02T00:34:25.836Z,0.40
2018-04-02T00:36:52.265Z,0.40
2018-04-02T00:39:19.398Z,0.40
2018-04-02T00:41:46.017Z,0.40
2018-04-02T00:44:12.485Z,0.40
2018-04-02T00:46:39.007Z,0.30
2018-04-02T00:49:05.449Z,0.40
2018-04-02T00:51:31.919Z,0.40
2018-04-02T00:53:58.486Z,0.30
2018-04-02T00:56:24.981Z,0.30
2018-04-02T00:58:51.473Z,0.30
2018-04-02T01:01:18.111Z,0.30
2018-04-02T01:03:44.954Z,0.40
2018-04-02T01:06:11.441Z,0.30
2018-04-02T01:08:38.059Z,0.30
2018-04-02T01:11:05.269Z,0.30
2018-04-02T01:13:31.814Z,0.30
2018-04-02T01:15:59.202Z,0.30
2018-04-02T01:18:26.506Z,0.30
2018-04-02T01:20:52.932Z,0.30
2018-04-02T01:23:19.706Z,0.30
2018-04-02T01:25:46.732Z,0.20
2018-04-02T01:28:13.180Z,0.20
2018-04-02T01:30:47.014Z,0.10
2018-04-02T01:33:14.311Z,0.10
2018-04-02T01:35:40.812Z,0.10
2018-04-02T01:38:08.198Z,0.20
2018-04-02T01:40:34.743Z,0.20
2018-04-02T01:43:01.349Z,0.20
2018-04-02T01:45:27.954Z,0.10
2018-04-02T01:47:54.421Z,0.10
2018-04-02T01:50:20.886Z,0.20
2018-04-02T01:52:47.688Z,0.30
2018-04-02T01:55:14.895Z,0.30
2018-04-02T01:57:41.568Z,0.20
2018-04-02T02:00:08.287Z,0.30
2018-04-02T02:02:34.854Z,0.20
2018-04-02T02:05:02.074Z,0.10
2018-04-02T02:07:28.750Z,0.10
2018-04-02T02:09:55.944Z,0.20
2018-04-02T02:12:22.444Z,0.20
2018-04-02T02:14:49.769Z,0.10
2018-04-02T02:17:16.372Z,0.10
2018-04-02T02:19:42.825Z,0.20
2018-04-02T02:22:09.589Z,0.20
2018-04-02T02:24:36.097Z,0.20
2018-04-02T02:27:02.561Z,0.20
2018-04-02T02:29:29.534Z,0.20
2018-04-02T02:31:56.196Z,0.30
2018-04-02T02:34:22.632Z,0.20
2018-04-02T02:36:49.191Z,0.20
2018-04-02T02:39:15.764Z,0.20
2018-04-02T02:41:42.234Z,0.20
2018-04-02T02:44:08.708Z,0.10
2018-04-02T02:46:35.287Z,0.20
2018-04-02T02:49:02.461Z,0.20
2018-04-02T02:51:28.974Z,0.20
2018-04-02T02:53:55.608Z,0.20
2018-04-02T02:56:22.049Z,0.20
2018-04-02T02:58:49.252Z,0.20
2018-04-02T03:01:15.669Z,0.20
2018-04-02T03:03:42.264Z,0.20
2018-04-02T03:06:09.107Z,0.20
2018-04-02T03:08:35.642Z,0.20
2018-04-02T03:11:02.194Z,0.20
2018-04-02T03:13:28.723Z,0.10
2018-04-02T03:15:55.861Z,0.10
2018-04-02T03:18:22.499Z,0.10
2018-04-02T03:20:49.734Z,0.10
2018-04-02T03:23:16.169Z,0.10
2018-04-02T03:25:42.617Z,0.10
2018-04-02T03:28:10.890Z,0.20
2018-04-02T03:30:38.066Z,0.20
2018-04-02T03:33:04.566Z,0.20
2018-04-02T03:35:31.834Z,0.10
2018-04-02T03:37:59.110Z,0.10
2018-04-02T03:40:25.556Z,0.10
2018-04-02T03:42:52.788Z,0.10
2018-04-02T03:45:19.973Z,0.10
2018-04-02T03:47:46.388Z,0.10
2018-04-02T03:50:13.202Z,0.10
2018-04-02T03:52:39.605Z,0.10
2018-04-02T03:55:06.105Z,0.10
2018-04-02T03:57:32.580Z,0.10
2018-04-02T03:59:59.723Z,0.00
2018-04-02T04:02:26.264Z,0.00
2018-04-02T04:04:53.504Z,0.10
2018-04-02T04:07:20.023Z,0.10
2018-04-02T04:09:46.761Z,0.10
2018-04-02T04:12:13.382Z,0.10
2018-04-02T04:14:39.796Z,0.10
2018-04-02T04:17:06.193Z,0.10
2018-04-02T04:19:32.857Z,0.10
2018-04-02T04:22:00.085Z,0.10
2018-04-02T04:24:26.618Z,0.10
2018-04-02T04:26:53.132Z,0.20
2018-04-02T04:29:20.635Z,0.10
2018-04-02T04:31:47.041Z,0.10
2018-04-02T04:34:13.641Z,0.20
2018-04-02T04:36:40.118Z,0.20
2018-04-02T04:39:06.639Z,0.20
2018-04-02T04:41:33.213Z,0.20
2018-04-02T04:44:00.618Z,0.20
2018-04-02T04:46:27.120Z,0.20
2018-04-02T04:48:55.726Z,0.20
2018-04-02T04:51:22.221Z,0.30
2018-04-02T04:53:49.436Z,0.20
2018-04-02T04:56:23.156Z,0.30
2018-04-02T04:58:49.754Z,0.20
2018-04-02T05:01:16.257Z,0.20
2018-04-02T05:03:43.185Z,0.30
2018-04-02T05:06:09.683Z,0.30
2018-04-02T05:08:36.136Z,0.30
2018-04-02T05:11:02.994Z,0.30
2018-04-02T05:13:29.480Z,0.30
2018-04-02T05:15:56.032Z,0.40
2018-04-02T05:18:22.637Z,0.50
2018-04-02T05:20:49.949Z,0.50
2018-04-02T05:23:17.147Z,0.40
2018-04-02T05:25:44.310Z,0.50
2018-04-02T05:28:10.809Z,0.50
2018-04-02T05:30:38.245Z,0.50
2018-04-02T05:33:04.866Z,0.50
2018-04-02T05:35:32.069Z,0.60
2018-04-02T05:37:58.752Z,0.50
2018-04-02T05:40:25.298Z,0.50
2018-04-02T05:42:51.761Z,0.60
2018-04-02T05:45:18.253Z,0.60
2018-04-02T05:47:44.832Z,0.60
2018-04-02T05:50:11.291Z,0.60
2018-04-02T05:52:37.865Z,0.60
2018-04-02T05:55:04.821Z,0.70
2018-04-02T05:57:31.306Z,0.70
2018-04-02T05:59:58.606Z,0.80
2018-04-02T06:02:25.416Z,0.70
2018-04-02T06:04:52.987Z,0.80
2018-04-02T06:07:19.555Z,0.80
2018-04-02T06:09:46.140Z,0.60
2018-04-02T06:12:12.816Z,0.70
2018-04-02T06:14:39.417Z,0.80
2018-04-02T06:17:07.000Z,0.80
2018-04-02T06:19:33.555Z,0.70
2018-04-02T06:22:00.135Z,0.80
2018-04-02T06:24:26.925Z,0.90
2018-04-02T06:26:53.396Z,0.80
2018-04-02T06:29:20.318Z,0.80
2018-04-02T06:31:47.624Z,0.80
2018-04-02T06:34:14.097Z,0.80
2018-04-02T06:36:40.622Z,0.90
2018-04-02T06:39:07.274Z,0.90
2018-04-02T06:41:33.874Z,1.00
2018-04-02T06:44:01.188Z,1.00
2018-04-02T06:46:27.750Z,0.90
2018-04-02T06:48:54.446Z,1.00
2018-04-02T06:51:21.643Z,1.00
2018-04-02T06:53:48.221Z,1.00
2018-04-02T06:56:15.485Z,1.10
2018-04-02T06:58:42.016Z,1.30
2018-04-02T07:01:08.552Z,1.20
2018-04-02T07:03:35.885Z,1.30
2018-04-02T07:06:03.290Z,1.30
2018-04-02T07:08:29.787Z,1.30
2018-04-02T07:10:56.553Z,1.30
2018-04-02T07:13:23.007Z,1.20
2018-04-02T07:15:50.261Z,1.30
2018-04-02T07:18:17.012Z,1.30
2018-04-02T07:20:44.529Z,1.50
2018-04-02T07:23:11.139Z,1.60
2018-04-02T07:25:38.376Z,2.10
2018-04-02T07:28:05.723Z,2.10
2018-04-02T07:30:32.190Z,2.10
2018-04-02T07:32:58.973Z,2.40
2018-04-02T07:35:25.523Z,2.80
2018-04-02T07:37:52.007Z,2.70
2018-04-02T07:40:18.510Z,2.70
2018-04-02T07:42:45.050Z,2.90
2018-04-02T07:45:12.334Z,2.70
2018-04-02T07:47:38.893Z,2.70
2018-04-02T07:50:05.485Z,2.90
2018-04-02T07:52:32.014Z,2.90
2018-04-02T07:54:58.510Z,2.80
2018-04-02T07:57:24.976Z,2.40
2018-04-02T07:59:51.487Z,2.80
2018-04-02T08:02:18.004Z,3.10
2018-04-02T08:04:44.566Z,3.30
2018-04-02T08:07:11.909Z,3.60
2018-04-02T08:09:38.376Z,3.70
2018-04-02T08:12:04.932Z,3.40
2018-04-02T08:14:31.486Z,3.60
2018-04-02T08:16:58.000Z,4.00
2018-04-02T08:19:24.418Z,4.00
2018-04-02T08:21:50.880Z,3.80
2018-04-02T08:24:17.516Z,3.80
2018-04-02T08:26:45.032Z,3.80
2018-04-02T08:29:11.623Z,3.80
2018-04-02T08:31:38.222Z,3.60
2018-04-02T08:34:05.759Z,3.90
2018-04-02T08:36:33.209Z,3.90
2018-04-02T08:39:00.609Z,3.80
2018-04-02T08:41:27.117Z,3.80
2018-04-02T08:43:53.572Z,3.70
2018-04-02T08:46:20.853Z,4.10
2018-04-02T08:48:48.453Z,4.50
2018-04-02T08:51:14.985Z,4.50
2018-04-02T08:53:41.489Z,4.30
2018-04-02T08:56:08.005Z,4.20
2018-04-02T08:58:35.248Z,4.50
2018-04-02T09:01:01.807Z,4.50
2018-04-02T09:03:28.411Z,4.80
2018-04-02T09:05:54.869Z,4.60
2018-04-02T09:08:21.582Z,5.10
2018-04-02T09:10:48.227Z,5.20
2018-04-02T09:13:14.745Z,5.60
2018-04-02T09:15:42.021Z,4.70
2018-04-02T09:18:08.468Z,4.70
2018-04-02T09:20:35.706Z,6.40
2018-04-02T09:23:03.062Z,6.70
2018-04-02T09:25:29.571Z,6.60
2018-04-02T09:27:56.450Z,7.10
2018-04-02T09:30:22.938Z,7.50
2018-04-02T09:32:49.548Z,7.40
2018-04-02T09:35:16.260Z,7.40
2018-04-02T09:37:43.441Z,7.40
2018-04-02T09:40:09.973Z,7.30
2018-04-02T09:42:36.539Z,7.40
2018-04-02T09:45:03.051Z,7.40
2018-04-02T09:47:29.627Z,7.80
2018-04-02T09:49:56.203Z,7.80
2018-04-02T09:52:22.740Z,8.00
2018-04-02T09:54:49.573Z,8.00
2018-04-02T09:57:16.832Z,8.50
2018-04-02T09:59:44.137Z,8.60
2018-04-02T10:02:12.796Z,8.60
2018-04-02T10:04:42.300Z,8.30
2018-04-02T10:07:08.818Z,7.60
2018-04-02T10:09:35.838Z,7.20
2018-04-02T10:12:02.683Z,7.30
2018-04-02T10:14:29.308Z,6.80
2018-04-02T10:16:55.953Z,6.20
2018-04-02T10:19:22.739Z,5.80
2018-04-02T10:21:49.441Z,5.80
2018-04-02T10:24:16.026Z,5.80
2018-04-02T10:26:42.530Z,5.50
2018-04-02T10:29:09.670Z,5.80
2018-04-02T10:31:36.176Z,5.70
2018-04-02T10:34:02.613Z,5.60
2018-04-02T10:36:29.037Z,5.70
2018-04-02T10:38:55.445Z,5.30
2018-04-02T10:41:22.112Z,5.40
2018-04-02T10:43:49.017Z,5.30
2018-04-02T10:46:16.370Z,5.60
2018-04-02T10:48:42.821Z,5.60
2018-04-02T10:51:09.473Z,5.40
2018-04-02T10:53:35.982Z,5.20
2018-04-02T10:56:03.432Z,5.00
2018-04-02T10:58:30.825Z,4.80
2018-04-02T11:00:57.285Z,4.80
2018-04-02T11:03:23.809Z,4.70
2018-04-02T11:05:50.379Z,4.50
2018-04-02T11:08:16.904Z,4.40
2018-04-02T11:10:43.378Z,4.60
2018-04-02T11:13:10.922Z,4.70
2018-04-02T11:15:38.177Z,4.80
2018-04-02T11:18:07.844Z,4.80
2018-04-02T11:20:35.006Z,4.80
2018-04-02T11:23:01.472Z,4.80
2018-04-02T11:25:28.080Z,4.80
2018-04-02T11:27:55.518Z,4.50
2018-04-02T11:30:22.684Z,4.50
2018-04-02T11:32:49.334Z,4.40
2018-04-02T11:35:15.891Z,4.60
2018-04-02T11:37:42.410Z,4.90
2018-04-02T11:40:10.265Z,4.90
2018-04-02T11:42:36.833Z,4.90
2018-04-02T11:45:03.308Z,5.10
2018-04-02T11:47:30.009Z,5.00
2018-04-02T11:49:57.192Z,4.90
2018-04-02T11:52:23.651Z,4.90
2018-04-02T11:54:50.190Z,4.90
2018-04-02T11:57:16.678Z,5.00
2018-04-02T11:59:43.180Z,5.10
2018-04-02T12:02:09.753Z,5.10
2018-04-02T12:04:36.367Z,5.00
2018-04-02T12:07:03.530Z,5.40
2018-04-02T12:09:30.332Z,5.40
2018-04-02T12:11:56.832Z,5.40
2018-04-02T12:14:23.502Z,5.50
2018-04-02T12:16:50.949Z,6.00
2018-04-02T12:19:17.490Z,5.90
2018-04-02T12:21:44.105Z,6.10
2018-04-02T12:24:10.612Z,6.10
2018-04-02T12:26:37.156Z,6.00
2018-04-02T12:29:03.691Z,5.40
2018-04-02T12:31:30.235Z,5.60
2018-04-02T12:33:56.718Z,5.70
2018-04-02T12:36:36.449Z,6.00
2018-04-02T12:39:03.109Z,6.10
2018-04-02T12:41:29.572Z,5.80
2018-04-02T12:43:56.146Z,5.60
2018-04-02T12:46:22.689Z,6.10
2018-04-02T12:48:50.008Z,7.80
2018-04-02T12:51:16.512Z,7.80
2018-04-02T12:53:42.961Z,8.10
2018-04-02T12:56:09.402Z,7.90
2018-04-02T12:58:36.166Z,8.10
2018-04-02T13:01:03.404Z,8.40
2018-04-02T13:03:30.582Z,8.30
2018-04-02T13:05:57.161Z,8.30
2018-04-02T13:08:23.770Z,7.90
2018-04-02T13:10:50.409Z,8.10
2018-04-02T13:13:16.960Z,6.60
2018-04-02T13:15:43.485Z,6.30
2018-04-02T13:18:10.002Z,6.50
2018-04-02T13:20:36.504Z,6.60
2018-04-02T13:23:03.794Z,7.10
2018-04-02T13:25:30.297Z,7.10
2018-04-02T13:27:56.864Z,7.10
2018-04-02T13:30:23.506Z,7.20
2018-04-02T13:32:50.193Z,6.70
2018-04-02T13:35:16.755Z,6.10
2018-04-02T13:37:43.252Z,6.40
2018-04-02T13:40:10.576Z,7.10
2018-04-02T13:42:37.151Z,7.10
2018-04-02T13:45:03.745Z,7.10
2018-04-02T13:47:30.298Z,7.60
2018-04-02T13:49:56.835Z,7.10
2018-04-02T13:52:23.447Z,7.40
2018-04-02T13:54:49.866Z,7.70
2018-04-02T13:57:16.313Z,7.50
2018-04-02T13:59:42.898Z,6.70
2018-04-02T14:02:09.335Z,6.10
2018-04-02T14:04:35.767Z,5.70
2018-04-02T14:07:02.241Z,5.70
2018-04-02T14:09:28.709Z,5.70
2018-04-02T14:11:55.305Z,5.50
2018-04-02T14:14:21.913Z,5.40
2018-04-02T14:16:48.449Z,5.50
2018-04-02T14:19:15.848Z,5.40
2018-04-02T14:21:42.345Z,5.40
2018-04-02T14:24:08.972Z,5.40
2018-04-02T14:26:36.219Z,5.60
2018-04-02T14:29:03.483Z,5.70
2018-04-02T14:31:30.728Z,5.50
2018-04-02T14:33:57.299Z,5.50
2018-04-02T14:36:24.194Z,5.40
2018-04-02T14:38:50.751Z,5.30
2018-04-02T14:41:17.302Z,5.40
2018-04-02T14:43:43.724Z,5.20
2018-04-02T14:46:10.222Z,5.40
2018-04-02T14:48:36.876Z,5.30
2018-04-02T14:51:04.097Z,5.60
2018-04-02T14:53:30.546Z,5.60
2018-04-02T14:55:57.292Z,5.30
2018-04-02T14:58:23.739Z,5.30
2018-04-02T15:00:50.246Z,5.40
2018-04-02T15:03:17.721Z,5.10
2018-04-02T15:05:44.379Z,5.20
2018-04-02T15:08:10.804Z,5.20
2018-04-02T15:10:37.565Z,5.20
2018-04-02T15:13:04.114Z,5.20
2018-04-02T15:15:30.654Z,5.20
2018-04-02T15:17:57.942Z,5.30
2018-04-02T15:20:24.533Z,5.30
2018-04-02T15:22:51.785Z,5.10
2018-04-02T15:25:18.390Z,5.10
2018-04-02T15:27:47.009Z,4.90
2018-04-02T15:30:13.558Z,4.90
2018-04-02T15:32:40.072Z,4.80
2018-04-02T15:35:06.557Z,4.80
2018-04-02T15:37:33.115Z,4.80
2018-04-02T15:39:59.600Z,4.90
2018-04-02T15:42:26.059Z,5.00
2018-04-02T15:44:52.769Z,4.90
2018-04-02T15:47:20.020Z,4.80
2018-04-02T15:49:46.510Z,4.80
2018-04-02T15:52:13.335Z,4.70
2018-04-02T15:54:39.804Z,4.60
2018-04-02T15:57:06.322Z,4.60
2018-04-02T15:59:33.638Z,4.40
2018-04-02T16:02:00.137Z,4.40
2018-04-02T16:04:26.734Z,4.40
2018-04-02T16:06:53.195Z,4.50
2018-04-02T16:09:20.515Z,4.50
2018-04-02T16:11:47.192Z,4.50
2018-04-02T16:14:13.726Z,4.50
2018-04-02T16:16:40.917Z,4.50
2018-04-02T16:19:08.273Z,4.30
2018-04-02T16:21:34.796Z,4.30
2018-04-02T16:24:01.388Z,4.30
2018-04-02T16:26:27.914Z,4.20
2018-04-02T16:28:55.434Z,4.20
2018-04-02T16:31:22.587Z,4.10
2018-04-02T16:33:49.221Z,4.00
2018-04-02T16:36:15.701Z,4.00
2018-04-02T16:38:42.629Z,3.90
2018-04-02T16:41:09.086Z,3.80
2018-04-02T16:43:35.616Z,3.90
2018-04-02T16:46:02.174Z,3.70
2018-04-02T16:48:36.478Z,3.70
2018-04-02T16:51:04.173Z,3.70
2018-04-02T16:53:30.666Z,3.70
2018-04-02T16:55:57.164Z,3.70
2018-04-02T16:58:24.509Z,3.70
2018-04-02T17:00:51.107Z,3.60
2018-04-02T17:03:17.609Z,3.60
2018-04-02T17:05:44.777Z,3.60
2018-04-02T17:08:11.415Z,3.50
2018-04-02T17:10:37.847Z,3.50
2018-04-02T17:13:04.934Z,3.50
2018-04-02T17:15:32.237Z,3.40
2018-04-02T17:17:59.734Z,3.40
2018-04-02T17:20:26.232Z,3.40
2018-04-02T17:22:53.469Z,3.30
2018-04-02T17:25:19.949Z,3.30
2018-04-02T17:27:47.464Z,3.30
2018-04-02T17:30:14.021Z,3.20
2018-04-02T17:32:40.816Z,3.20
2018-04-02T17:35:07.335Z,3.10
2018-04-02T17:37:34.481Z,3.10
2018-04-02T17:40:00.983Z,3.10
2018-04-02T17:42:28.344Z,3.00
2018-04-02T17:44:55.106Z,3.00
2018-04-02T17:47:21.659Z,3.00
2018-04-02T17:49:48.243Z,3.00
2018-04-02T17:52:14.744Z,2.90
2018-04-02T17:54:41.396Z,2.80
2018-04-02T17:57:08.020Z,2.80
2018-04-02T17:59:34.580Z,2.80
2018-04-02T18:02:01.340Z,2.80
2018-04-02T18:04:28.547Z,2.70
2018-04-02T18:06:56.129Z,2.70
2018-04-02T18:09:24.726Z,2.70
2018-04-02T18:11:51.357Z,2.70
2018-04-02T18:14:17.850Z,2.60
2018-04-02T18:16:44.498Z,2.60
2018-04-02T18:19:11.227Z,2.70
2018-04-02T18:21:37.861Z,2.60
2018-04-02T18:24:04.512Z,2.60
2018-04-02T18:26:30.985Z,2.60
2018-04-02T18:28:57.472Z,2.60
2018-04-02T18:31:24.824Z,2.40
2018-04-02T18:33:51.363Z,2.40
2018-04-02T18:36:17.925Z,2.40
2018-04-02T18:38:44.625Z,2.40
2018-04-02T18:41:11.877Z,2.20
2018-04-02T18:43:39.421Z,2.20
2018-04-02T18:46:06.027Z,2.30
2018-04-02T18:48:33.328Z,2.20
2018-04-02T18:50:59.833Z,2.20
2018-04-02T18:53:26.338Z,2.20
2018-04-02T18:55:52.848Z,2.10
2018-04-02T18:58:20.527Z,2.10
2018-04-02T19:00:47.591Z,2.10
2018-04-02T19:03:15.229Z,2.10
2018-04-02T19:05:41.823Z,2.00
2018-04-02T19:08:08.601Z,2.00
2018-04-02T19:10:35.251Z,2.00
2018-04-02T19:13:02.320Z,1.90
2018-04-02T19:15:28.844Z,1.90
2018-04-02T19:17:55.693Z,1.90
2018-04-02T19:20:23.040Z,1.80
2018-04-02T19:22:49.441Z,1.70
2018-04-02T19:25:17.971Z,1.80
2018-04-02T19:27:44.607Z,1.80
2018-04-02T19:30:11.064Z,1.80
2018-04-02T19:32:37.628Z,1.70
2018-04-02T19:35:04.155Z,1.60
2018-04-02T19:37:30.694Z,1.60
2018-04-02T19:39:57.250Z,1.60
2018-04-02T19:42:23.703Z,1.60
2018-04-02T19:44:50.225Z,1.60
2018-04-02T19:47:16.718Z,1.50
2018-04-02T19:49:43.274Z,1.50
2018-04-02T19:52:09.795Z,1.50
2018-04-02T19:54:36.424Z,1.50
2018-04-02T19:57:02.951Z,1.50
2018-04-02T19:59:29.938Z,1.30
2018-04-02T20:01:56.490Z,1.30
2018-04-02T20:04:23.022Z,1.30
2018-04-02T20:06:49.549Z,1.20
2018-04-02T20:09:19.801Z,1.30
2018-04-02T20:11:49.848Z,1.20
2018-04-02T20:14:16.570Z,1.20
2018-04-02T20:16:43.061Z,1.20
2018-04-02T20:19:09.880Z,1.10
2018-04-02T20:21:36.665Z,1.10
2018-04-02T20:24:03.165Z,1.00
2018-04-02T20:26:29.691Z,1.00
2018-04-02T21:22:31.811Z,0.40
2018-04-02T21:24:58.357Z,0.40
2018-04-02T21:27:24.927Z,0.40
2018-04-02T21:29:51.495Z,0.30
2018-04-02T21:32:17.996Z,0.30
2018-04-02T21:34:44.680Z,0.20
2018-04-02T21:37:11.328Z,0.20
2018-04-02T21:39:37.843Z,0.20
2018-04-02T21:42:04.400Z,0.20
2018-04-02T21:44:32.567Z,0.10
2018-04-02T21:46:59.050Z,0.10
2018-04-02T21:49:25.559Z,0.10
2018-04-02T21:51:52.142Z,0.00
2018-04-02T21:54:18.711Z,0.00
2018-04-02T21:56:45.672Z,0.00
2018-04-02T21:59:12.159Z,0.00
2018-04-02T22:01:38.594Z,0.00
2018-04-02T22:04:05.057Z,-0.10
2018-04-02T22:06:43.569Z,-0.10
2018-04-02T22:09:10.135Z,-0.10
2018-04-02T22:11:36.644Z,-0.10
2018-04-02T22:14:03.164Z,-0.20
2018-04-02T22:16:29.638Z,-0.20
2018-04-02T22:18:56.844Z,-0.20
2018-04-02T22:21:23.363Z,-0.20
2018-04-02T22:23:50.110Z,-0.20
2018-04-02T22:26:16.544Z,-0.20
2018-04-02T22:28:43.052Z,-0.30
2018-04-02T22:31:09.587Z,-0.30
2018-04-02T22:33:36.049Z,-0.30
2018-04-02T22:36:02.616Z,-0.30
2018-04-02T22:38:29.154Z,-0.30
2018-04-02T22:40:55.727Z,-0.30
2018-04-02T22:43:23.214Z,-0.30
2018-04-02T22:45:49.685Z,-0.40
2018-04-02T22:48:16.959Z,-0.40
2018-04-02T22:50:43.709Z,-0.40
2018-04-02T22:53:10.146Z,-0.40
2018-04-02T22:55:36.715Z,-0.50
2018-04-02T22:58:03.701Z,-0.40
2018-04-02T23:00:30.170Z,-0.40
2018-04-02T23:02:56.605Z,-0.40
2018-04-02T23:05:23.136Z,-0.50
2018-04-02T23:07:49.643Z,-0.50
2018-04-02T23:10:16.138Z,-0.50
2018-04-02T23:12:42.852Z,-0.50
2018-04-02T23:15:09.365Z,-0.60
2018-04-02T23:17:36.647Z,-0.50
2018-04-02T23:20:03.381Z,-0.50
2018-04-02T23:22:41.994Z,-0.60
2018-04-02T23:25:08.616Z,-0.50
2018-04-02T23:27:35.992Z,-0.60
2018-04-02T23:30:02.493Z,-0.60
2018-04-02T23:32:29.328Z,-0.60
2018-04-02T23:34:55.815Z,-0.60
2018-04-02T23:37:22.342Z,-0.60
2018-04-02T23:39:48.887Z,-0.70
2018-04-02T23:42:15.320Z,-0.70
2018-04-02T23:44:41.729Z,-0.70
2018-04-02T23:47:08.927Z,-0.80
2018-04-02T23:49:35.403Z,-0.80
2018-04-02T23:52:01.989Z,-0.80
2018-04-02T23:54:28.457Z,-0.80
2018-04-02T23:56:54.921Z,-0.80
2018-04-02T23:59:22.165Z,-0.90
